sensor_id;sensor_type;location;lat;lon;timestamp;P1;durP1;ratioP1;P2;durP2;ratioP2
71777;SDS011;59609;52.430;4.668;2023-12-29T00:00:57;22.00;;;3.47;;
71777;SDS011;59609;52.430;4.668;2023-12-29T00:03:22;23.10;;;3.60;;
71777;SDS011;59609;52.430;4.668;2023-12-29T00:05:48;25.07;;;3.03;;
71777;SDS011;59609;52.430;4.668;2023-12-29T00:08:13;21.27;;;3.30;;
71777;SDS011;59609;52.430;4.668;2023-12-29T00:10:38;30.00;;;3.40;;
71777;SDS011;59609;52.430;4.668;2023-12-29T00:13:03;24.20;;;3.43;;
71777;SDS011;59609;52.430;4.668;2023-12-29T00:15:29;20.77;;;3.23;;
71777;SDS011;59609;52.430;4.668;2023-12-29T00:17:54;21.85;;;2.83;;
71777;SDS011;59609;52.430;4.668;2023-12-29T00:20:19;26.73;;;3.43;;
71777;SDS011;59609;52.430;4.668;2023-12-29T00:22:44;23.20;;;3.00;;
71777;SDS011;59609;52.430;4.668;2023-12-29T00:25:09;25.03;;;3.37;;
71777;SDS011;59609;52.430;4.668;2023-12-29T00:27:36;29.95;;;3.40;;
71777;SDS011;59609;52.430;4.668;2023-12-29T00:30:01;13.45;;;2.22;;
71777;SDS011;59609;52.430;4.668;2023-12-29T00:32:27;20.35;;;3.10;;
71777;SDS011;59609;52.430;4.668;2023-12-29T00:34:52;16.70;;;3.20;;
71777;SDS011;59609;52.430;4.668;2023-12-29T00:37:17;29.50;;;4.17;;
71777;SDS011;59609;52.430;4.668;2023-12-29T00:39:43;20.13;;;2.93;;
71777;SDS011;59609;52.430;4.668;2023-12-29T00:42:08;22.57;;;3.07;;
71777;SDS011;59609;52.430;4.668;2023-12-29T00:44:33;17.98;;;3.10;;
71777;SDS011;59609;52.430;4.668;2023-12-29T00:46:59;26.40;;;3.97;;
71777;SDS011;59609;52.430;4.668;2023-12-29T00:49:25;24.17;;;3.47;;
71777;SDS011;59609;52.430;4.668;2023-12-29T00:51:53;15.80;;;3.38;;
71777;SDS011;59609;52.430;4.668;2023-12-29T00:54:18;29.83;;;4.00;;
71777;SDS011;59609;52.430;4.668;2023-12-29T00:56:52;17.85;;;2.88;;
71777;SDS011;59609;52.430;4.668;2023-12-29T00:59:18;19.30;;;2.25;;
71777;SDS011;59609;52.430;4.668;2023-12-29T01:01:43;23.65;;;3.17;;
71777;SDS011;59609;52.430;4.668;2023-12-29T01:04:09;19.80;;;3.50;;
71777;SDS011;59609;52.430;4.668;2023-12-29T01:06:34;19.27;;;3.17;;
71777;SDS011;59609;52.430;4.668;2023-12-29T01:09:00;25.80;;;2.47;;
71777;SDS011;59609;52.430;4.668;2023-12-29T01:11:25;24.00;;;3.13;;
71777;SDS011;59609;52.430;4.668;2023-12-29T01:13:50;24.23;;;2.87;;
71777;SDS011;59609;52.430;4.668;2023-12-29T01:16:15;21.03;;;3.17;;
71777;SDS011;59609;52.430;4.668;2023-12-29T01:18:40;17.38;;;2.67;;
71777;SDS011;59609;52.430;4.668;2023-12-29T01:21:06;24.17;;;2.33;;
71777;SDS011;59609;52.430;4.668;2023-12-29T01:23:31;20.27;;;2.67;;
71777;SDS011;59609;52.430;4.668;2023-12-29T01:25:56;17.17;;;2.40;;
71777;SDS011;59609;52.430;4.668;2023-12-29T01:28:21;13.03;;;2.13;;
71777;SDS011;59609;52.430;4.668;2023-12-29T01:30:46;18.80;;;2.83;;
71777;SDS011;59609;52.430;4.668;2023-12-29T01:33:12;15.50;;;3.03;;
71777;SDS011;59609;52.430;4.668;2023-12-29T01:35:38;12.47;;;1.80;;
71777;SDS011;59609;52.430;4.668;2023-12-29T01:38:03;17.00;;;3.42;;
71777;SDS011;59609;52.430;4.668;2023-12-29T01:40:29;11.93;;;2.53;;
71777;SDS011;59609;52.430;4.668;2023-12-29T01:42:54;14.77;;;2.20;;
71777;SDS011;59609;52.430;4.668;2023-12-29T01:45:21;7.47;;;2.07;;
71777;SDS011;59609;52.430;4.668;2023-12-29T01:47:47;23.27;;;3.55;;
71777;SDS011;59609;52.430;4.668;2023-12-29T01:50:12;25.05;;;3.67;;
71777;SDS011;59609;52.430;4.668;2023-12-29T01:52:37;20.95;;;3.20;;
71777;SDS011;59609;52.430;4.668;2023-12-29T01:55:03;19.55;;;2.28;;
71777;SDS011;59609;52.430;4.668;2023-12-29T01:57:28;17.73;;;2.42;;
71777;SDS011;59609;52.430;4.668;2023-12-29T01:59:54;24.80;;;3.00;;
71777;SDS011;59609;52.430;4.668;2023-12-29T02:02:19;16.53;;;1.90;;
71777;SDS011;59609;52.430;4.668;2023-12-29T02:04:44;21.15;;;2.47;;
71777;SDS011;59609;52.430;4.668;2023-12-29T02:07:10;19.47;;;2.60;;
71777;SDS011;59609;52.430;4.668;2023-12-29T02:09:35;16.53;;;2.53;;
71777;SDS011;59609;52.430;4.668;2023-12-29T02:12:01;14.90;;;2.65;;
71777;SDS011;59609;52.430;4.668;2023-12-29T02:14:27;20.08;;;3.10;;
71777;SDS011;59609;52.430;4.668;2023-12-29T02:16:54;14.18;;;2.60;;
71777;SDS011;59609;52.430;4.668;2023-12-29T02:22:16;21.35;;;2.72;;
71777;SDS011;59609;52.430;4.668;2023-12-29T02:24:59;20.23;;;2.50;;
71777;SDS011;59609;52.430;4.668;2023-12-29T02:30:06;14.70;;;2.10;;
71777;SDS011;59609;52.430;4.668;2023-12-29T02:32:33;19.65;;;2.85;;
71777;SDS011;59609;52.430;4.668;2023-12-29T02:34:59;27.60;;;2.58;;
71777;SDS011;59609;52.430;4.668;2023-12-29T02:37:25;21.75;;;2.65;;
71777;SDS011;59609;52.430;4.668;2023-12-29T02:39:50;22.88;;;3.85;;
71777;SDS011;59609;52.430;4.668;2023-12-29T02:42:16;29.35;;;4.00;;
71777;SDS011;59609;52.430;4.668;2023-12-29T02:44:41;24.00;;;2.73;;
71777;SDS011;59609;52.430;4.668;2023-12-29T02:47:06;25.50;;;3.10;;
71777;SDS011;59609;52.430;4.668;2023-12-29T02:49:32;21.07;;;3.30;;
71777;SDS011;59609;52.430;4.668;2023-12-29T02:51:57;23.67;;;3.17;;
71777;SDS011;59609;52.430;4.668;2023-12-29T02:54:22;22.50;;;3.20;;
71777;SDS011;59609;52.430;4.668;2023-12-29T02:56:47;15.60;;;2.50;;
71777;SDS011;59609;52.430;4.668;2023-12-29T02:59:13;26.93;;;4.40;;
71777;SDS011;59609;52.430;4.668;2023-12-29T03:01:38;13.50;;;2.13;;
71777;SDS011;59609;52.430;4.668;2023-12-29T03:04:03;22.27;;;3.50;;
71777;SDS011;59609;52.430;4.668;2023-12-29T03:06:28;16.92;;;2.47;;
71777;SDS011;59609;52.430;4.668;2023-12-29T03:08:54;17.03;;;2.63;;
71777;SDS011;59609;52.430;4.668;2023-12-29T03:11:19;21.70;;;2.60;;
71777;SDS011;59609;52.430;4.668;2023-12-29T03:13:44;19.63;;;2.10;;
71777;SDS011;59609;52.430;4.668;2023-12-29T03:16:09;15.13;;;1.70;;
71777;SDS011;59609;52.430;4.668;2023-12-29T03:18:35;33.35;;;3.78;;
71777;SDS011;59609;52.430;4.668;2023-12-29T03:21:03;15.15;;;2.17;;
71777;SDS011;59609;52.430;4.668;2023-12-29T03:23:28;23.63;;;2.95;;
71777;SDS011;59609;52.430;4.668;2023-12-29T03:25:54;21.77;;;2.40;;
71777;SDS011;59609;52.430;4.668;2023-12-29T03:28:19;17.40;;;2.63;;
71777;SDS011;59609;52.430;4.668;2023-12-29T03:30:44;20.02;;;2.22;;
71777;SDS011;59609;52.430;4.668;2023-12-29T03:33:09;18.05;;;2.83;;
71777;SDS011;59609;52.430;4.668;2023-12-29T03:35:35;20.80;;;2.70;;
71777;SDS011;59609;52.430;4.668;2023-12-29T03:38:00;19.80;;;3.03;;
71777;SDS011;59609;52.430;4.668;2023-12-29T03:40:25;14.33;;;2.00;;
71777;SDS011;59609;52.430;4.668;2023-12-29T03:42:50;14.43;;;1.87;;
71777;SDS011;59609;52.430;4.668;2023-12-29T03:45:15;15.82;;;2.40;;
71777;SDS011;59609;52.430;4.668;2023-12-29T03:47:41;15.33;;;1.97;;
71777;SDS011;59609;52.430;4.668;2023-12-29T03:50:06;16.63;;;3.00;;
71777;SDS011;59609;52.430;4.668;2023-12-29T03:52:31;16.30;;;2.22;;
71777;SDS011;59609;52.430;4.668;2023-12-29T03:54:57;19.77;;;2.20;;
71777;SDS011;59609;52.430;4.668;2023-12-29T03:57:22;23.47;;;3.13;;
71777;SDS011;59609;52.430;4.668;2023-12-29T03:59:47;12.93;;;1.90;;
71777;SDS011;59609;52.430;4.668;2023-12-29T04:02:12;16.47;;;2.33;;
71777;SDS011;59609;52.430;4.668;2023-12-29T04:04:37;13.23;;;2.63;;
71777;SDS011;59609;52.430;4.668;2023-12-29T04:07:03;25.30;;;2.65;;
71777;SDS011;59609;52.430;4.668;2023-12-29T04:09:28;17.03;;;2.23;;
71777;SDS011;59609;52.430;4.668;2023-12-29T04:11:53;14.97;;;2.20;;
71777;SDS011;59609;52.430;4.668;2023-12-29T04:14:19;16.20;;;2.13;;
71777;SDS011;59609;52.430;4.668;2023-12-29T04:16:44;20.90;;;2.93;;
71777;SDS011;59609;52.430;4.668;2023-12-29T04:19:09;17.90;;;1.90;;
71777;SDS011;59609;52.430;4.668;2023-12-29T04:21:34;16.47;;;2.90;;
71777;SDS011;59609;52.430;4.668;2023-12-29T04:23:59;13.27;;;1.90;;
71777;SDS011;59609;52.430;4.668;2023-12-29T04:26:25;21.38;;;2.92;;
71777;SDS011;59609;52.430;4.668;2023-12-29T04:28:50;21.45;;;3.13;;
71777;SDS011;59609;52.430;4.668;2023-12-29T04:31:16;18.97;;;3.10;;
71777;SDS011;59609;52.430;4.668;2023-12-29T04:33:41;21.80;;;2.73;;
71777;SDS011;59609;52.430;4.668;2023-12-29T04:36:06;19.17;;;3.37;;
71777;SDS011;59609;52.430;4.668;2023-12-29T04:38:31;7.00;;;1.67;;
71777;SDS011;59609;52.430;4.668;2023-12-29T04:40:56;17.27;;;2.50;;
71777;SDS011;59609;52.430;4.668;2023-12-29T04:43:22;21.93;;;2.77;;
71777;SDS011;59609;52.430;4.668;2023-12-29T04:45:47;19.13;;;2.33;;
71777;SDS011;59609;52.430;4.668;2023-12-29T04:48:12;21.03;;;3.07;;
71777;SDS011;59609;52.430;4.668;2023-12-29T04:50:37;18.13;;;2.83;;
71777;SDS011;59609;52.430;4.668;2023-12-29T04:53:02;21.57;;;3.43;;
71777;SDS011;59609;52.430;4.668;2023-12-29T04:55:28;20.77;;;2.87;;
71777;SDS011;59609;52.430;4.668;2023-12-29T04:57:53;15.30;;;2.37;;
71777;SDS011;59609;52.430;4.668;2023-12-29T05:00:18;19.73;;;2.83;;
71777;SDS011;59609;52.430;4.668;2023-12-29T05:02:43;12.70;;;1.98;;
71777;SDS011;59609;52.430;4.668;2023-12-29T05:05:09;12.10;;;1.93;;
71777;SDS011;59609;52.430;4.668;2023-12-29T05:07:34;18.53;;;2.47;;
71777;SDS011;59609;52.430;4.668;2023-12-29T05:10:00;11.30;;;1.98;;
71777;SDS011;59609;52.430;4.668;2023-12-29T05:12:25;20.43;;;2.50;;
71777;SDS011;59609;52.430;4.668;2023-12-29T05:14:50;14.60;;;1.83;;
71777;SDS011;59609;52.430;4.668;2023-12-29T05:17:16;11.97;;;2.20;;
71777;SDS011;59609;52.430;4.668;2023-12-29T05:19:41;19.77;;;2.60;;
71777;SDS011;59609;52.430;4.668;2023-12-29T05:22:06;15.23;;;3.30;;
71777;SDS011;59609;52.430;4.668;2023-12-29T05:24:31;18.70;;;2.13;;
71777;SDS011;59609;52.430;4.668;2023-12-29T05:26:57;16.17;;;2.13;;
71777;SDS011;59609;52.430;4.668;2023-12-29T05:29:22;17.73;;;4.37;;
71777;SDS011;59609;52.430;4.668;2023-12-29T05:31:47;15.80;;;1.83;;
71777;SDS011;59609;52.430;4.668;2023-12-29T05:34:12;22.63;;;3.63;;
71777;SDS011;59609;52.430;4.668;2023-12-29T05:36:38;22.23;;;3.43;;
71777;SDS011;59609;52.430;4.668;2023-12-29T05:39:03;26.90;;;2.85;;
71777;SDS011;59609;52.430;4.668;2023-12-29T05:41:29;24.85;;;3.70;;
71777;SDS011;59609;52.430;4.668;2023-12-29T05:43:54;26.92;;;3.00;;
71777;SDS011;59609;52.430;4.668;2023-12-29T05:46:19;27.53;;;3.27;;
71777;SDS011;59609;52.430;4.668;2023-12-29T05:48:46;14.03;;;2.47;;
71777;SDS011;59609;52.430;4.668;2023-12-29T05:51:12;17.88;;;2.78;;
71777;SDS011;59609;52.430;4.668;2023-12-29T05:53:39;23.35;;;3.08;;
71777;SDS011;59609;52.430;4.668;2023-12-29T05:56:04;28.98;;;5.07;;
71777;SDS011;59609;52.430;4.668;2023-12-29T05:58:30;18.38;;;2.40;;
71777;SDS011;59609;52.430;4.668;2023-12-29T06:00:55;24.90;;;3.23;;
71777;SDS011;59609;52.430;4.668;2023-12-29T06:03:21;24.27;;;3.80;;
71777;SDS011;59609;52.430;4.668;2023-12-29T06:05:46;24.75;;;3.65;;
71777;SDS011;59609;52.430;4.668;2023-12-29T06:08:11;21.23;;;3.33;;
71777;SDS011;59609;52.430;4.668;2023-12-29T06:10:37;29.40;;;3.93;;
71777;SDS011;59609;52.430;4.668;2023-12-29T06:13:02;22.00;;;3.58;;
71777;SDS011;59609;52.430;4.668;2023-12-29T06:15:28;27.88;;;2.92;;
71777;SDS011;59609;52.430;4.668;2023-12-29T06:17:53;17.45;;;3.38;;
71777;SDS011;59609;52.430;4.668;2023-12-29T06:20:18;23.87;;;2.80;;
71777;SDS011;59609;52.430;4.668;2023-12-29T06:22:45;18.90;;;2.75;;
71777;SDS011;59609;52.430;4.668;2023-12-29T06:25:10;23.83;;;3.60;;
71777;SDS011;59609;52.430;4.668;2023-12-29T06:27:36;21.30;;;3.15;;
71777;SDS011;59609;52.430;4.668;2023-12-29T06:30:06;14.38;;;2.45;;
71777;SDS011;59609;52.430;4.668;2023-12-29T06:32:31;20.63;;;2.92;;
71777;SDS011;59609;52.430;4.668;2023-12-29T06:34:57;15.10;;;2.53;;
71777;SDS011;59609;52.430;4.668;2023-12-29T06:37:22;26.60;;;3.97;;
71777;SDS011;59609;52.430;4.668;2023-12-29T06:39:47;19.10;;;3.03;;
71777;SDS011;59609;52.430;4.668;2023-12-29T06:42:12;19.60;;;2.33;;
71777;SDS011;59609;52.430;4.668;2023-12-29T06:44:38;23.87;;;3.23;;
71777;SDS011;59609;52.430;4.668;2023-12-29T06:47:03;16.90;;;2.63;;
71777;SDS011;59609;52.430;4.668;2023-12-29T06:49:30;23.55;;;3.42;;
71777;SDS011;59609;52.430;4.668;2023-12-29T06:51:55;20.50;;;2.40;;
71777;SDS011;59609;52.430;4.668;2023-12-29T06:54:21;20.33;;;3.47;;
71777;SDS011;59609;52.430;4.668;2023-12-29T06:56:46;24.13;;;2.77;;
71777;SDS011;59609;52.430;4.668;2023-12-29T06:59:13;20.55;;;2.75;;
71777;SDS011;59609;52.430;4.668;2023-12-29T07:01:38;23.73;;;3.60;;
71777;SDS011;59609;52.430;4.668;2023-12-29T07:04:05;24.05;;;3.08;;
71777;SDS011;59609;52.430;4.668;2023-12-29T07:06:30;36.80;;;3.88;;
71777;SDS011;59609;52.430;4.668;2023-12-29T07:08:55;19.70;;;2.50;;
71777;SDS011;59609;52.430;4.668;2023-12-29T07:11:20;16.30;;;2.50;;
71777;SDS011;59609;52.430;4.668;2023-12-29T07:13:46;25.48;;;3.03;;
71777;SDS011;59609;52.430;4.668;2023-12-29T07:16:11;24.27;;;2.50;;
71777;SDS011;59609;52.430;4.668;2023-12-29T07:18:36;13.77;;;2.43;;
71777;SDS011;59609;52.430;4.668;2023-12-29T07:21:01;19.17;;;2.73;;
71777;SDS011;59609;52.430;4.668;2023-12-29T07:23:27;23.67;;;2.78;;
71777;SDS011;59609;52.430;4.668;2023-12-29T07:25:52;22.10;;;3.13;;
71777;SDS011;59609;52.430;4.668;2023-12-29T07:28:18;22.67;;;2.40;;
71777;SDS011;59609;52.430;4.668;2023-12-29T07:30:43;20.10;;;2.57;;
71777;SDS011;59609;52.430;4.668;2023-12-29T07:33:09;18.98;;;2.33;;
71777;SDS011;59609;52.430;4.668;2023-12-29T07:35:34;21.27;;;2.57;;
71777;SDS011;59609;52.430;4.668;2023-12-29T07:37:59;24.73;;;2.30;;
71777;SDS011;59609;52.430;4.668;2023-12-29T07:40:24;26.53;;;3.70;;
71777;SDS011;59609;52.430;4.668;2023-12-29T07:42:51;24.83;;;3.17;;
71777;SDS011;59609;52.430;4.668;2023-12-29T07:45:16;18.95;;;3.28;;
71777;SDS011;59609;52.430;4.668;2023-12-29T07:47:42;19.75;;;2.92;;
71777;SDS011;59609;52.430;4.668;2023-12-29T07:50:07;23.98;;;3.17;;
71777;SDS011;59609;52.430;4.668;2023-12-29T07:52:33;21.52;;;2.80;;
71777;SDS011;59609;52.430;4.668;2023-12-29T07:54:58;20.60;;;3.23;;
71777;SDS011;59609;52.430;4.668;2023-12-29T07:57:26;19.98;;;2.67;;
71777;SDS011;59609;52.430;4.668;2023-12-29T07:59:51;27.80;;;2.77;;
71777;SDS011;59609;52.430;4.668;2023-12-29T08:02:16;22.83;;;3.13;;
71777;SDS011;59609;52.430;4.668;2023-12-29T08:04:41;25.60;;;3.85;;
71777;SDS011;59609;52.430;4.668;2023-12-29T08:07:07;24.23;;;4.35;;
71777;SDS011;59609;52.430;4.668;2023-12-29T08:09:32;24.70;;;3.53;;
71777;SDS011;59609;52.430;4.668;2023-12-29T08:11:57;26.63;;;3.43;;
71777;SDS011;59609;52.430;4.668;2023-12-29T08:14:22;15.50;;;2.80;;
71777;SDS011;59609;52.430;4.668;2023-12-29T08:16:47;27.63;;;4.17;;
71777;SDS011;59609;52.430;4.668;2023-12-29T08:19:13;25.57;;;2.77;;
71777;SDS011;59609;52.430;4.668;2023-12-29T08:21:40;23.80;;;2.80;;
71777;SDS011;59609;52.430;4.668;2023-12-29T08:24:05;21.50;;;2.17;;
71777;SDS011;59609;52.430;4.668;2023-12-29T08:26:30;22.00;;;2.87;;
71777;SDS011;59609;52.430;4.668;2023-12-29T08:28:56;22.53;;;3.30;;
71777;SDS011;59609;52.430;4.668;2023-12-29T08:31:21;25.27;;;2.70;;
71777;SDS011;59609;52.430;4.668;2023-12-29T08:33:48;28.80;;;3.33;;
71777;SDS011;59609;52.430;4.668;2023-12-29T08:36:13;26.45;;;3.30;;
71777;SDS011;59609;52.430;4.668;2023-12-29T08:38:38;19.90;;;3.53;;
71777;SDS011;59609;52.430;4.668;2023-12-29T08:41:04;19.80;;;2.23;;
71777;SDS011;59609;52.430;4.668;2023-12-29T08:43:29;23.25;;;3.60;;
71777;SDS011;59609;52.430;4.668;2023-12-29T08:45:54;20.70;;;2.22;;
71777;SDS011;59609;52.430;4.668;2023-12-29T08:48:20;16.90;;;2.63;;
71777;SDS011;59609;52.430;4.668;2023-12-29T08:50:45;22.48;;;2.80;;
71777;SDS011;59609;52.430;4.668;2023-12-29T08:53:10;19.60;;;2.73;;
71777;SDS011;59609;52.430;4.668;2023-12-29T08:55:35;26.85;;;4.32;;
71777;SDS011;59609;52.430;4.668;2023-12-29T08:58:01;19.37;;;3.17;;
71777;SDS011;59609;52.430;4.668;2023-12-29T09:00:26;17.98;;;2.45;;
71777;SDS011;59609;52.430;4.668;2023-12-29T09:02:51;18.03;;;5.50;;
71777;SDS011;59609;52.430;4.668;2023-12-29T09:05:16;24.37;;;6.13;;
71777;SDS011;59609;52.430;4.668;2023-12-29T09:07:41;19.00;;;3.03;;
71777;SDS011;59609;52.430;4.668;2023-12-29T09:10:07;15.03;;;2.50;;
71777;SDS011;59609;52.430;4.668;2023-12-29T09:12:35;26.83;;;5.38;;
71777;SDS011;59609;52.430;4.668;2023-12-29T09:15:00;20.73;;;5.78;;
71777;SDS011;59609;52.430;4.668;2023-12-29T09:17:26;16.30;;;4.97;;
71777;SDS011;59609;52.430;4.668;2023-12-29T09:19:51;15.83;;;4.57;;
71777;SDS011;59609;52.430;4.668;2023-12-29T09:22:16;15.85;;;4.72;;
71777;SDS011;59609;52.430;4.668;2023-12-29T09:24:42;19.80;;;4.77;;
71777;SDS011;59609;52.430;4.668;2023-12-29T09:27:07;17.25;;;5.50;;
71777;SDS011;59609;52.430;4.668;2023-12-29T09:29:32;17.90;;;4.80;;
71777;SDS011;59609;52.430;4.668;2023-12-29T09:31:57;14.87;;;5.10;;
71777;SDS011;59609;52.430;4.668;2023-12-29T09:34:22;22.57;;;4.63;;
71777;SDS011;59609;52.430;4.668;2023-12-29T09:36:48;21.57;;;4.77;;
71777;SDS011;59609;52.430;4.668;2023-12-29T09:39:13;15.97;;;5.03;;
71777;SDS011;59609;52.430;4.668;2023-12-29T09:41:39;19.20;;;5.43;;
71777;SDS011;59609;52.430;4.668;2023-12-29T09:44:06;15.73;;;4.40;;
71777;SDS011;59609;52.430;4.668;2023-12-29T09:46:37;25.38;;;4.85;;
71777;SDS011;59609;52.430;4.668;2023-12-29T09:49:03;25.73;;;4.43;;
71777;SDS011;59609;52.430;4.668;2023-12-29T09:51:30;25.02;;;5.47;;
71777;SDS011;59609;52.430;4.668;2023-12-29T09:53:55;19.42;;;4.22;;
71777;SDS011;59609;52.430;4.668;2023-12-29T09:56:23;26.80;;;4.88;;
71777;SDS011;59609;52.430;4.668;2023-12-29T09:58:49;22.15;;;4.43;;
71777;SDS011;59609;52.430;4.668;2023-12-29T10:01:17;23.92;;;4.53;;
71777;SDS011;59609;52.430;4.668;2023-12-29T10:03:43;18.83;;;4.28;;
71777;SDS011;59609;52.430;4.668;2023-12-29T10:06:08;19.80;;;5.17;;
71777;SDS011;59609;52.430;4.668;2023-12-29T10:08:34;24.05;;;4.15;;
71777;SDS011;59609;52.430;4.668;2023-12-29T10:11:00;11.85;;;3.90;;
71777;SDS011;59609;52.430;4.668;2023-12-29T10:13:25;12.85;;;3.53;;
71777;SDS011;59609;52.430;4.668;2023-12-29T10:16:03;19.08;;;3.92;;
71777;SDS011;59609;52.430;4.668;2023-12-29T10:18:32;12.82;;;4.13;;
71777;SDS011;59609;52.430;4.668;2023-12-29T10:21:07;10.68;;;3.47;;
71777;SDS011;59609;52.430;4.668;2023-12-29T10:23:40;11.65;;;4.07;;
71777;SDS011;59609;52.430;4.668;2023-12-29T10:26:07;11.73;;;4.43;;
71777;SDS011;59609;52.430;4.668;2023-12-29T10:28:32;14.75;;;3.58;;
71777;SDS011;59609;52.430;4.668;2023-12-29T10:30:57;11.70;;;3.50;;
71777;SDS011;59609;52.430;4.668;2023-12-29T10:33:23;17.65;;;3.95;;
71777;SDS011;59609;52.430;4.668;2023-12-29T10:35:56;10.65;;;3.42;;
71777;SDS011;59609;52.430;4.668;2023-12-29T10:38:22;8.05;;;2.58;;
71777;SDS011;59609;52.430;4.668;2023-12-29T10:40:47;9.10;;;3.20;;
71777;SDS011;59609;52.430;4.668;2023-12-29T10:43:12;17.73;;;3.33;;
71777;SDS011;59609;52.430;4.668;2023-12-29T10:45:38;13.60;;;2.90;;
71777;SDS011;59609;52.430;4.668;2023-12-29T10:48:03;13.13;;;4.33;;
71777;SDS011;59609;52.430;4.668;2023-12-29T10:50:28;13.70;;;3.55;;
71777;SDS011;59609;52.430;4.668;2023-12-29T10:55:37;15.95;;;3.38;;
71777;SDS011;59609;52.430;4.668;2023-12-29T10:58:03;12.93;;;3.67;;
71777;SDS011;59609;52.430;4.668;2023-12-29T11:00:31;11.07;;;3.20;;
71777;SDS011;59609;52.430;4.668;2023-12-29T11:02:57;15.13;;;3.40;;
71777;SDS011;59609;52.430;4.668;2023-12-29T11:05:24;13.82;;;3.00;;
71777;SDS011;59609;52.430;4.668;2023-12-29T11:07:50;20.92;;;3.95;;
71777;SDS011;59609;52.430;4.668;2023-12-29T11:10:18;12.38;;;3.15;;
71777;SDS011;59609;52.430;4.668;2023-12-29T11:12:45;14.05;;;3.33;;
71777;SDS011;59609;52.430;4.668;2023-12-29T11:15:11;13.82;;;2.90;;
71777;SDS011;59609;52.430;4.668;2023-12-29T11:17:38;16.05;;;3.42;;
71777;SDS011;59609;52.430;4.668;2023-12-29T11:20:04;10.00;;;2.42;;
71777;SDS011;59609;52.430;4.668;2023-12-29T11:22:30;10.07;;;2.95;;
71777;SDS011;59609;52.430;4.668;2023-12-29T11:24:59;14.98;;;2.95;;
71777;SDS011;59609;52.430;4.668;2023-12-29T11:27:28;12.05;;;3.22;;
71777;SDS011;59609;52.430;4.668;2023-12-29T11:29:55;14.98;;;3.05;;
71777;SDS011;59609;52.430;4.668;2023-12-29T11:32:22;11.95;;;4.13;;
71777;SDS011;59609;52.430;4.668;2023-12-29T11:34:52;12.25;;;2.90;;
71777;SDS011;59609;52.430;4.668;2023-12-29T11:39:52;9.43;;;2.80;;
71777;SDS011;59609;52.430;4.668;2023-12-29T11:42:21;10.18;;;2.90;;
71777;SDS011;59609;52.430;4.668;2023-12-29T11:44:46;7.68;;;2.20;;
71777;SDS011;59609;52.430;4.668;2023-12-29T11:50:00;11.35;;;2.63;;
71777;SDS011;59609;52.430;4.668;2023-12-29T11:52:35;11.40;;;2.88;;
71777;SDS011;59609;52.430;4.668;2023-12-29T11:55:10;12.18;;;2.67;;
71777;SDS011;59609;52.430;4.668;2023-12-29T11:57:36;8.20;;;2.75;;
71777;SDS011;59609;52.430;4.668;2023-12-29T12:00:02;14.65;;;3.10;;
71777;SDS011;59609;52.430;4.668;2023-12-29T12:02:30;8.55;;;2.55;;
71777;SDS011;59609;52.430;4.668;2023-12-29T12:04:55;11.00;;;2.78;;
71777;SDS011;59609;52.430;4.668;2023-12-29T12:09:49;8.95;;;2.70;;
71777;SDS011;59609;52.430;4.668;2023-12-29T12:12:38;10.93;;;2.85;;
71777;SDS011;59609;52.430;4.668;2023-12-29T12:15:00;10.52;;;2.70;;
71777;SDS011;59609;52.430;4.668;2023-12-29T12:17:27;12.48;;;3.42;;
71777;SDS011;59609;52.430;4.668;2023-12-29T12:19:56;11.02;;;2.92;;
71777;SDS011;59609;52.430;4.668;2023-12-29T12:22:22;15.10;;;2.95;;
71777;SDS011;59609;52.430;4.668;2023-12-29T12:24:48;18.85;;;3.17;;
71777;SDS011;59609;52.430;4.668;2023-12-29T12:27:14;8.65;;;2.58;;
71777;SDS011;59609;52.430;4.668;2023-12-29T12:29:39;14.00;;;2.53;;
71777;SDS011;59609;52.430;4.668;2023-12-29T12:32:05;13.20;;;2.70;;
71777;SDS011;59609;52.430;4.668;2023-12-29T12:34:38;9.63;;;2.83;;
71777;SDS011;59609;52.430;4.668;2023-12-29T12:37:04;6.78;;;2.30;;
71777;SDS011;59609;52.430;4.668;2023-12-29T12:39:39;10.90;;;2.57;;
71777;SDS011;59609;52.430;4.668;2023-12-29T12:42:05;5.65;;;2.70;;
71777;SDS011;59609;52.430;4.668;2023-12-29T12:44:30;13.30;;;3.23;;
71777;SDS011;59609;52.430;4.668;2023-12-29T12:46:59;10.55;;;2.92;;
71777;SDS011;59609;52.430;4.668;2023-12-29T12:49:28;8.30;;;2.35;;
71777;SDS011;59609;52.430;4.668;2023-12-29T12:51:55;6.68;;;2.90;;
71777;SDS011;59609;52.430;4.668;2023-12-29T12:54:20;10.57;;;2.38;;
71777;SDS011;59609;52.430;4.668;2023-12-29T12:56:46;7.70;;;2.55;;
71777;SDS011;59609;52.430;4.668;2023-12-29T12:59:11;9.43;;;2.83;;
71777;SDS011;59609;52.430;4.668;2023-12-29T13:01:37;13.23;;;2.92;;
71777;SDS011;59609;52.430;4.668;2023-12-29T13:04:03;13.10;;;2.72;;
71777;SDS011;59609;52.430;4.668;2023-12-29T13:06:28;12.32;;;2.85;;
71777;SDS011;59609;52.430;4.668;2023-12-29T13:08:54;19.15;;;3.78;;
71777;SDS011;59609;52.430;4.668;2023-12-29T13:11:19;11.97;;;2.80;;
71777;SDS011;59609;52.430;4.668;2023-12-29T13:13:47;11.02;;;2.55;;
71777;SDS011;59609;52.430;4.668;2023-12-29T13:16:12;12.45;;;2.72;;
71777;SDS011;59609;52.430;4.668;2023-12-29T13:18:38;21.50;;;3.40;;
71777;SDS011;59609;52.430;4.668;2023-12-29T13:21:04;12.70;;;3.38;;
71777;SDS011;59609;52.430;4.668;2023-12-29T13:23:31;16.10;;;2.92;;
71777;SDS011;59609;52.430;4.668;2023-12-29T13:25:57;13.57;;;3.03;;
71777;SDS011;59609;52.430;4.668;2023-12-29T13:28:24;12.65;;;3.08;;
71777;SDS011;59609;52.430;4.668;2023-12-29T13:30:51;13.30;;;2.92;;
71777;SDS011;59609;52.430;4.668;2023-12-29T13:33:18;8.57;;;2.38;;
71777;SDS011;59609;52.430;4.668;2023-12-29T13:35:50;10.30;;;1.75;;
71777;SDS011;59609;52.430;4.668;2023-12-29T13:38:21;20.02;;;2.78;;
71777;SDS011;59609;52.430;4.668;2023-12-29T13:40:54;16.45;;;2.25;;
71777;SDS011;59609;52.430;4.668;2023-12-29T13:43:20;10.40;;;1.70;;
71777;SDS011;59609;52.430;4.668;2023-12-29T13:45:46;10.18;;;1.50;;
71777;SDS011;59609;52.430;4.668;2023-12-29T13:48:12;16.42;;;2.67;;
71777;SDS011;59609;52.430;4.668;2023-12-29T13:50:38;14.15;;;2.10;;
71777;SDS011;59609;52.430;4.668;2023-12-29T13:53:05;13.32;;;1.80;;
71777;SDS011;59609;52.430;4.668;2023-12-29T13:55:30;16.60;;;2.07;;
71777;SDS011;59609;52.430;4.668;2023-12-29T13:57:56;18.93;;;2.23;;
71777;SDS011;59609;52.430;4.668;2023-12-29T14:00:24;12.27;;;1.42;;
71777;SDS011;59609;52.430;4.668;2023-12-29T14:07:53;16.85;;;2.17;;
71777;SDS011;59609;52.430;4.668;2023-12-29T14:10:20;10.50;;;1.60;;
71777;SDS011;59609;52.430;4.668;2023-12-29T14:12:45;13.23;;;1.90;;
71777;SDS011;59609;52.430;4.668;2023-12-29T14:15:11;18.80;;;1.88;;
71777;SDS011;59609;52.430;4.668;2023-12-29T14:17:36;15.93;;;1.60;;
71777;SDS011;59609;52.430;4.668;2023-12-29T14:20:03;15.85;;;1.85;;
71777;SDS011;59609;52.430;4.668;2023-12-29T14:22:31;15.57;;;1.80;;
71777;SDS011;59609;52.430;4.668;2023-12-29T14:25:03;17.67;;;1.88;;
71777;SDS011;59609;52.430;4.668;2023-12-29T14:27:29;9.75;;;1.63;;
71777;SDS011;59609;52.430;4.668;2023-12-29T14:29:55;8.85;;;1.95;;
71777;SDS011;59609;52.430;4.668;2023-12-29T14:32:20;6.38;;;1.35;;
71777;SDS011;59609;52.430;4.668;2023-12-29T14:34:49;8.33;;;1.43;;
71777;SDS011;59609;52.430;4.668;2023-12-29T14:37:20;4.43;;;1.35;;
71777;SDS011;59609;52.430;4.668;2023-12-29T14:39:51;3.30;;;0.70;;
71777;SDS011;59609;52.430;4.668;2023-12-29T14:42:16;1.70;;;1.00;;
71777;SDS011;59609;52.430;4.668;2023-12-29T14:44:42;3.67;;;0.85;;
71777;SDS011;59609;52.430;4.668;2023-12-29T14:47:10;3.95;;;1.20;;
71777;SDS011;59609;52.430;4.668;2023-12-29T14:49:35;1.98;;;0.95;;